createdAt,value
2024-01-26T00:01:20.631Z,2.60
2024-01-26T00:03:50.256Z,2.88
2024-01-26T00:04:56.801Z,2.35
2024-01-26T00:06:19.342Z,2.88
2024-01-26T00:08:48.371Z,3.03
2024-01-26T00:10:12.721Z,3.75
2024-01-26T00:11:17.702Z,2.60
2024-01-26T00:13:46.461Z,2.83
2024-01-26T00:15:28.632Z,2.95
2024-01-26T00:16:15.716Z,2.95
2024-01-26T00:18:44.645Z,2.90
2024-01-26T00:20:43.767Z,2.30
2024-01-26T00:21:13.963Z,3.50
2024-01-26T00:23:42.792Z,3.03
2024-01-26T00:25:59.565Z,2.60
2024-01-26T00:26:11.835Z,3.40
2024-01-26T00:28:45.069Z,3.13
2024-01-26T00:31:13.890Z,3.03
2024-01-26T00:31:15.103Z,2.47
2024-01-26T00:33:42.998Z,2.80
2024-01-26T00:36:11.280Z,2.85
2024-01-26T00:36:31.590Z,2.45
2024-01-26T00:38:40.504Z,2.70
2024-01-26T00:41:09.108Z,3.05
2024-01-26T00:41:46.656Z,2.20
2024-01-26T00:43:37.291Z,2.78
2024-01-26T00:46:06.876Z,2.40
2024-01-26T00:47:02.634Z,2.60
2024-01-26T00:48:37.864Z,2.75
2024-01-26T00:51:07.748Z,3.03
2024-01-26T00:52:17.683Z,2.53
2024-01-26T00:53:36.343Z,2.80
2024-01-26T00:56:04.627Z,2.40
2024-01-26T00:57:33.613Z,2.05
2024-01-26T00:58:33.737Z,2.70
2024-01-26T01:01:02.961Z,2.97
2024-01-26T01:02:48.689Z,2.20
2024-01-26T01:03:31.862Z,2.70
2024-01-26T01:06:01.211Z,2.60
2024-01-26T01:08:03.319Z,2.47
2024-01-26T01:08:30.786Z,2.67
2024-01-26T01:11:00.251Z,2.78
2024-01-26T01:13:18.599Z,2.47
2024-01-26T01:13:29.767Z,2.40
2024-01-26T01:15:58.722Z,2.42
2024-01-26T01:18:28.320Z,2.58
2024-01-26T01:18:33.781Z,2.20
2024-01-26T01:20:57.873Z,2.75
2024-01-26T01:23:27.495Z,2.25
2024-01-26T01:23:49.627Z,2.08
2024-01-26T01:25:56.674Z,2.60
2024-01-26T01:28:25.507Z,2.40
2024-01-26T01:29:04.638Z,2.53
2024-01-26T01:30:54.116Z,2.97
2024-01-26T01:33:23.069Z,2.60
2024-01-26T01:34:19.857Z,2.10
2024-01-26T01:35:55.938Z,2.90
2024-01-26T01:38:24.823Z,2.50
2024-01-26T01:39:35.640Z,1.58
2024-01-26T01:40:54.083Z,2.50
2024-01-26T01:43:23.481Z,2.38
2024-01-26T01:44:50.772Z,2.42
2024-01-26T01:45:52.821Z,2.35
2024-01-26T01:48:22.305Z,2.60
2024-01-26T01:50:06.556Z,2.63
2024-01-26T01:50:55.315Z,2.38
2024-01-26T01:53:24.347Z,2.75
2024-01-26T01:55:21.559Z,2.20
2024-01-26T01:55:53.165Z,2.55
2024-01-26T01:58:21.806Z,2.42
2024-01-26T02:00:36.740Z,2.10
2024-01-26T02:00:50.428Z,2.17
2024-01-26T02:03:19.864Z,2.25
2024-01-26T02:05:48.953Z,2.17
2024-01-26T02:05:52.687Z,1.85
2024-01-26T02:08:18.396Z,2.10
2024-01-26T02:10:47.180Z,2.30
2024-01-26T02:11:07.621Z,2.15
2024-01-26T02:13:16.605Z,2.50
2024-01-26T02:15:45.993Z,2.42
2024-01-26T02:16:22.665Z,1.83
2024-01-26T02:18:14.981Z,2.55
2024-01-26T02:20:48.107Z,2.40
2024-01-26T02:21:37.698Z,2.00
2024-01-26T02:23:24.101Z,2.25
2024-01-26T02:25:53.053Z,2.30
2024-01-26T02:26:53.996Z,2.63
2024-01-26T02:28:21.948Z,2.60
2024-01-26T02:30:51.351Z,2.60
2024-01-26T02:32:09.654Z,2.17
2024-01-26T02:33:20.718Z,2.58
2024-01-26T02:35:50.179Z,2.50
2024-01-26T02:37:24.641Z,2.42
2024-01-26T02:38:19.523Z,2.53
2024-01-26T02:40:48.806Z,3.00
2024-01-26T02:42:39.567Z,2.42
2024-01-26T02:43:18.015Z,2.72
2024-01-26T02:45:47.533Z,3.10
2024-01-26T02:47:55.163Z,2.08
2024-01-26T02:48:17.133Z,2.85
2024-01-26T02:50:46.199Z,2.63
2024-01-26T02:53:10.651Z,2.10
2024-01-26T02:53:15.610Z,3.33
2024-01-26T02:55:44.425Z,2.58
2024-01-26T02:58:13.091Z,2.58
2024-01-26T02:58:25.928Z,2.38
2024-01-26T03:00:42.434Z,2.25
2024-01-26T03:03:11.874Z,3.15
2024-01-26T03:03:41.623Z,1.88
2024-01-26T03:05:40.937Z,2.95
2024-01-26T03:08:10.357Z,3.10
2024-01-26T03:08:56.832Z,1.98
2024-01-26T03:10:39.287Z,3.00
2024-01-26T03:13:08.588Z,2.60
2024-01-26T03:14:12.584Z,2.20
2024-01-26T03:15:38.020Z,3.10
2024-01-26T03:18:07.572Z,2.58
2024-01-26T03:19:27.723Z,2.60
2024-01-26T03:20:37.166Z,3.05
2024-01-26T03:23:06.095Z,2.90
2024-01-26T03:24:43.566Z,2.40
2024-01-26T03:25:36.384Z,2.97
2024-01-26T03:28:05.997Z,2.58
2024-01-26T03:29:58.348Z,2.10
2024-01-26T03:30:35.142Z,2.70
2024-01-26T03:33:04.563Z,2.50
2024-01-26T03:35:13.648Z,1.80
2024-01-26T03:35:34.038Z,2.60
2024-01-26T03:38:02.898Z,2.58
2024-01-26T03:40:28.661Z,2.17
2024-01-26T03:40:32.311Z,2.60
2024-01-26T03:43:01.409Z,2.45
2024-01-26T03:45:29.715Z,2.50
2024-01-26T03:45:43.599Z,2.38
2024-01-26T03:47:58.867Z,2.75
2024-01-26T03:50:27.589Z,2.25
2024-01-26T03:50:58.638Z,2.22
2024-01-26T03:52:56.938Z,2.58
2024-01-26T03:55:26.316Z,2.30
2024-01-26T03:56:14.004Z,2.20
2024-01-26T03:57:54.920Z,2.10
2024-01-26T04:00:23.153Z,2.05
2024-01-26T04:01:29.558Z,2.65
2024-01-26T04:02:52.530Z,2.63
2024-01-26T04:05:21.863Z,2.80
2024-01-26T04:06:44.970Z,2.40
2024-01-26T04:07:51.257Z,2.75
2024-01-26T04:10:20.312Z,2.80
2024-01-26T04:12:00.678Z,1.98
2024-01-26T04:12:53.669Z,2.78
2024-01-26T04:15:22.553Z,2.70
2024-01-26T04:17:15.592Z,2.03
2024-01-26T04:17:51.928Z,3.25
2024-01-26T04:20:21.126Z,3.28
2024-01-26T04:22:30.979Z,2.28
2024-01-26T04:22:51.015Z,2.75
2024-01-26T04:25:20.120Z,2.42
2024-01-26T04:27:46.723Z,3.03
2024-01-26T04:27:49.600Z,2.70
2024-01-26T04:30:18.997Z,2.90
2024-01-26T04:32:48.707Z,2.60
2024-01-26T04:33:01.482Z,1.98
2024-01-26T04:35:18.395Z,2.30
2024-01-26T04:37:47.778Z,2.20
2024-01-26T04:38:16.650Z,2.15
2024-01-26T04:40:17.070Z,2.42
2024-01-26T04:42:46.532Z,2.10
2024-01-26T04:43:31.543Z,1.60
2024-01-26T04:45:16.031Z,2.08
2024-01-26T04:47:45.526Z,2.10
2024-01-26T04:48:46.766Z,1.98
2024-01-26T04:50:14.965Z,2.08
2024-01-26T04:52:44.841Z,2.17
2024-01-26T04:54:02.748Z,1.50
2024-01-26T04:55:14.271Z,2.20
2024-01-26T04:57:43.643Z,2.33
2024-01-26T04:59:17.654Z,2.20
2024-01-26T05:00:12.635Z,2.53
2024-01-26T05:02:41.697Z,2.20
2024-01-26T05:04:32.658Z,2.03
2024-01-26T05:05:11.259Z,2.20
2024-01-26T05:07:40.690Z,2.60
2024-01-26T05:09:48.806Z,1.63
2024-01-26T05:10:10.062Z,2.00
2024-01-26T05:12:38.869Z,1.48
2024-01-26T05:15:06.971Z,2.10
2024-01-26T05:15:08.325Z,2.20
2024-01-26T05:17:37.896Z,2.08
2024-01-26T05:20:06.863Z,1.60
2024-01-26T05:20:22.692Z,1.83
2024-01-26T05:22:35.562Z,1.60
2024-01-26T05:25:04.401Z,2.00
2024-01-26T05:25:37.543Z,1.70
2024-01-26T05:27:33.092Z,1.90
2024-01-26T05:30:01.983Z,1.75
2024-01-26T05:30:52.649Z,1.27
2024-01-26T05:32:31.694Z,1.67
2024-01-26T05:35:01.126Z,1.70
2024-01-26T05:36:07.735Z,1.40
2024-01-26T05:37:30.499Z,1.67
2024-01-26T05:40:01.201Z,1.45
2024-01-26T05:41:22.790Z,1.60
2024-01-26T05:42:30.352Z,1.70
2024-01-26T05:44:59.540Z,1.90
2024-01-26T05:46:38.679Z,2.58
2024-01-26T05:47:28.444Z,2.08
2024-01-26T05:49:57.868Z,1.73
2024-01-26T05:51:53.700Z,1.77
2024-01-26T05:52:26.858Z,1.80
2024-01-26T05:54:55.985Z,1.55
2024-01-26T05:57:08.877Z,1.30
2024-01-26T05:57:25.145Z,1.50
2024-01-26T05:59:54.187Z,1.77
2024-01-26T06:02:22.881Z,1.65
2024-01-26T06:02:24.685Z,1.58
2024-01-26T06:04:51.605Z,1.67
2024-01-26T06:07:20.451Z,1.90
2024-01-26T06:07:39.706Z,1.80
2024-01-26T06:09:49.920Z,2.25
2024-01-26T06:12:19.225Z,2.30
2024-01-26T06:12:54.592Z,1.85
2024-01-26T06:14:49.742Z,1.85
2024-01-26T06:17:20.087Z,2.10
2024-01-26T06:18:09.809Z,1.30
2024-01-26T06:19:49.130Z,1.80
2024-01-26T06:22:18.439Z,1.85
2024-01-26T06:23:25.709Z,1.60
2024-01-26T06:24:47.749Z,1.80
2024-01-26T06:27:17.252Z,1.77
2024-01-26T06:28:40.577Z,1.30
2024-01-26T06:29:46.732Z,1.90
2024-01-26T06:32:15.709Z,1.88
2024-01-26T06:33:56.121Z,1.60
2024-01-26T06:34:45.201Z,1.60
2024-01-26T06:37:14.740Z,2.05
2024-01-26T06:39:11.985Z,1.70
2024-01-26T06:39:44.214Z,2.00
2024-01-26T06:42:13.166Z,1.80
2024-01-26T06:44:27.751Z,1.27
2024-01-26T06:44:42.662Z,2.13
2024-01-26T06:47:12.001Z,1.95
2024-01-26T06:49:41.025Z,1.90
2024-01-26T06:49:42.738Z,1.90
2024-01-26T06:52:09.663Z,1.50
2024-01-26T06:54:38.510Z,1.75
2024-01-26T06:54:57.651Z,2.03
2024-01-26T06:57:08.012Z,1.75
2024-01-26T06:59:36.997Z,1.50
2024-01-26T07:00:12.741Z,2.55
2024-01-26T07:02:06.336Z,1.98
2024-01-26T07:04:35.454Z,1.92
2024-01-26T07:05:28.050Z,4.20
2024-01-26T07:07:04.426Z,1.85
2024-01-26T07:09:33.836Z,1.92
2024-01-26T07:10:43.626Z,4.53
2024-01-26T07:12:03.297Z,1.77
2024-01-26T07:14:32.245Z,1.70
2024-01-26T07:15:58.643Z,3.83
2024-01-26T07:17:01.103Z,1.98
2024-01-26T07:19:30.721Z,2.00
2024-01-26T07:21:13.621Z,3.70
2024-01-26T07:22:00.109Z,2.15
2024-01-26T07:24:29.808Z,2.17
2024-01-26T07:26:28.761Z,2.55
2024-01-26T07:26:58.569Z,1.98
2024-01-26T07:29:28.170Z,1.60
2024-01-26T07:31:44.589Z,3.28
2024-01-26T07:31:57.516Z,1.90
2024-01-26T07:34:30.318Z,1.92
2024-01-26T07:36:59.668Z,3.20
2024-01-26T07:37:01.024Z,1.80
2024-01-26T07:39:30.064Z,2.30
2024-01-26T07:41:58.962Z,1.90
2024-01-26T07:42:14.712Z,2.50
2024-01-26T07:44:28.407Z,1.92
2024-01-26T07:46:57.948Z,1.80
2024-01-26T07:47:29.706Z,3.80
2024-01-26T07:49:28.737Z,1.55
2024-01-26T07:51:58.809Z,1.50
2024-01-26T07:52:44.612Z,2.65
2024-01-26T07:54:28.229Z,1.60
2024-01-26T07:56:57.234Z,1.77
2024-01-26T07:57:59.372Z,2.20
2024-01-26T07:59:26.239Z,2.58
2024-01-26T08:01:55.964Z,1.98
2024-01-26T08:03:14.883Z,4.57
2024-01-26T08:04:25.652Z,2.53
2024-01-26T08:06:55.251Z,2.30
2024-01-26T08:08:30.658Z,4.38
2024-01-26T08:09:24.651Z,2.30
2024-01-26T08:11:55.145Z,3.47
2024-01-26T08:13:45.855Z,4.63
2024-01-26T08:14:25.029Z,3.28
2024-01-26T08:16:54.007Z,3.03
2024-01-26T08:19:01.742Z,4.07
2024-01-26T08:19:25.002Z,2.58
2024-01-26T08:21:55.700Z,2.67
2024-01-26T08:24:17.615Z,4.78
2024-01-26T08:24:29.793Z,2.60
2024-01-26T08:26:58.826Z,2.60
2024-01-26T08:29:28.227Z,3.28
2024-01-26T08:29:32.417Z,4.78
2024-01-26T08:31:57.667Z,2.55
2024-01-26T08:34:26.699Z,2.92
2024-01-26T08:34:47.866Z,4.60
2024-01-26T08:36:56.143Z,2.85
2024-01-26T08:39:25.562Z,2.63
2024-01-26T08:40:03.721Z,4.03
2024-01-26T08:41:58.960Z,2.80
2024-01-26T08:44:28.256Z,2.53
2024-01-26T08:45:18.981Z,3.45
2024-01-26T08:46:57.079Z,2.40
2024-01-26T08:49:26.063Z,3.22
2024-01-26T08:50:34.411Z,4.30
2024-01-26T08:51:58.972Z,2.53
2024-01-26T08:54:28.405Z,2.45
2024-01-26T08:55:49.631Z,3.60
2024-01-26T08:57:01.205Z,2.78
2024-01-26T08:59:30.796Z,2.53
2024-01-26T09:01:04.800Z,3.55
2024-01-26T09:02:00.076Z,3.17
2024-01-26T09:04:29.089Z,2.65
2024-01-26T09:06:19.734Z,2.67
2024-01-26T09:07:04.560Z,2.75
2024-01-26T09:09:43.391Z,2.42
2024-01-26T09:11:35.679Z,3.03
2024-01-26T09:12:11.797Z,3.45
2024-01-26T09:14:40.728Z,2.70
2024-01-26T09:16:50.579Z,2.88
2024-01-26T09:17:10.097Z,2.97
2024-01-26T09:19:39.615Z,2.70
2024-01-26T09:22:05.670Z,2.75
2024-01-26T09:22:09.191Z,2.60
2024-01-26T09:24:38.584Z,2.40
2024-01-26T09:27:07.381Z,2.45
2024-01-26T09:27:20.771Z,2.95
2024-01-26T09:29:36.668Z,2.50
2024-01-26T09:32:05.732Z,2.83
2024-01-26T09:32:35.749Z,2.85
2024-01-26T09:34:34.890Z,2.40
2024-01-26T09:37:04.441Z,2.03
2024-01-26T09:37:50.609Z,2.40
2024-01-26T09:39:33.766Z,2.17
2024-01-26T09:42:03.419Z,2.05
2024-01-26T09:43:05.608Z,2.65
2024-01-26T09:44:32.802Z,2.63
2024-01-26T09:47:01.668Z,2.25
2024-01-26T09:48:20.550Z,2.45
2024-01-26T09:49:31.024Z,2.00
2024-01-26T09:52:00.422Z,2.22
2024-01-26T09:53:35.404Z,2.60
2024-01-26T09:54:29.394Z,2.35
2024-01-26T09:57:02.215Z,2.72
2024-01-26T09:58:50.620Z,2.50
2024-01-26T09:59:31.135Z,1.88
2024-01-26T10:02:00.394Z,2.00
2024-01-26T10:04:05.610Z,2.13
2024-01-26T10:04:29.942Z,1.70
2024-01-26T10:06:59.405Z,1.90
2024-01-26T10:09:20.735Z,2.60
2024-01-26T10:09:28.853Z,2.10
2024-01-26T10:11:58.198Z,1.70
2024-01-26T10:14:27.610Z,2.00
2024-01-26T10:15:12.697Z,1.75
2024-01-26T10:16:57.022Z,1.67
2024-01-26T10:19:25.996Z,1.75
2024-01-26T10:20:27.640Z,2.30
2024-01-26T10:21:55.571Z,1.70
2024-01-26T10:24:25.188Z,1.63
2024-01-26T10:25:42.845Z,1.90
2024-01-26T10:26:54.501Z,1.73
2024-01-26T10:29:23.560Z,1.70
2024-01-26T10:30:58.663Z,1.50
2024-01-26T10:31:52.177Z,1.80
2024-01-26T10:34:21.301Z,1.90
2024-01-26T10:36:13.699Z,2.35
2024-01-26T10:36:51.330Z,2.40
2024-01-26T10:39:19.688Z,2.03
2024-01-26T10:41:29.583Z,1.52
2024-01-26T10:41:48.677Z,1.70
2024-01-26T10:44:17.818Z,1.85
2024-01-26T10:46:44.711Z,2.03
2024-01-26T10:46:46.466Z,1.55
2024-01-26T10:49:16.819Z,1.30
2024-01-26T10:51:46.622Z,1.63
2024-01-26T10:51:59.911Z,2.20
2024-01-26T10:54:15.162Z,1.48
2024-01-26T10:56:45.539Z,1.80
2024-01-26T10:57:15.723Z,1.85
2024-01-26T10:59:15.605Z,1.40
2024-01-26T11:01:45.088Z,1.83
2024-01-26T11:02:31.033Z,1.88
2024-01-26T11:04:14.146Z,1.90
2024-01-26T11:06:44.161Z,2.05
2024-01-26T11:07:48.847Z,1.80
2024-01-26T11:09:13.747Z,1.73
2024-01-26T11:11:42.708Z,1.50
2024-01-26T11:13:05.625Z,1.63
2024-01-26T11:14:11.562Z,2.00
2024-01-26T11:16:40.665Z,5.00
2024-01-26T11:18:20.887Z,12.02
2024-01-26T11:19:10.236Z,8.68
2024-01-26T11:21:39.590Z,9.23
2024-01-26T11:23:36.647Z,8.98
2024-01-26T11:24:08.867Z,8.50
2024-01-26T11:26:38.159Z,9.52
2024-01-26T11:28:51.769Z,9.48
2024-01-26T11:29:07.139Z,8.45
2024-01-26T11:31:36.527Z,8.55
2024-01-26T11:34:05.499Z,9.05
2024-01-26T11:34:06.891Z,9.07
2024-01-26T11:36:34.432Z,9.65
2024-01-26T11:39:03.408Z,7.97
2024-01-26T11:39:22.814Z,8.30
2024-01-26T11:41:34.060Z,7.18
2024-01-26T11:44:03.866Z,8.18
2024-01-26T11:44:38.954Z,7.32
2024-01-26T11:46:32.985Z,7.63
2024-01-26T11:49:03.575Z,7.97
2024-01-26T11:49:54.805Z,7.28
2024-01-26T11:51:33.296Z,6.28
2024-01-26T11:54:01.881Z,6.22
2024-01-26T11:55:10.630Z,6.53
2024-01-26T11:56:31.007Z,6.32
2024-01-26T11:59:00.334Z,7.07
2024-01-26T12:00:25.717Z,6.32
2024-01-26T12:01:30.003Z,6.20
2024-01-26T12:03:59.373Z,5.68
2024-01-26T12:05:42.014Z,4.90
2024-01-26T12:06:28.074Z,6.18
2024-01-26T12:08:57.350Z,5.70
2024-01-26T12:10:57.454Z,6.68
2024-01-26T12:11:26.094Z,6.25
2024-01-26T12:13:55.399Z,5.88
2024-01-26T12:16:12.604Z,5.72
2024-01-26T12:16:24.247Z,5.82
2024-01-26T12:21:22.599Z,5.50
2024-01-26T12:21:27.747Z,5.90
2024-01-26T12:23:52.254Z,6.10
2024-01-26T12:26:22.159Z,4.80
2024-01-26T12:26:42.425Z,4.70
2024-01-26T12:28:50.874Z,4.78
2024-01-26T12:31:20.269Z,4.70
2024-01-26T12:31:57.526Z,6.97
2024-01-26T12:33:49.829Z,4.90
2024-01-26T12:36:19.551Z,4.45
2024-01-26T12:37:13.698Z,4.57
2024-01-26T12:38:49.016Z,4.38
2024-01-26T12:41:18.486Z,4.18
2024-01-26T12:42:28.648Z,4.30
2024-01-26T12:43:47.927Z,4.75
2024-01-26T12:46:16.811Z,3.88
2024-01-26T12:47:43.776Z,3.75
2024-01-26T12:48:45.966Z,4.60
2024-01-26T12:51:15.405Z,4.22
2024-01-26T12:52:58.687Z,3.42
2024-01-26T12:53:44.741Z,4.45
2024-01-26T12:56:14.051Z,3.75
2024-01-26T12:58:13.616Z,3.20
2024-01-26T12:58:43.415Z,4.07
2024-01-26T13:01:12.370Z,4.10
2024-01-26T13:03:28.726Z,7.03
2024-01-26T13:03:41.785Z,4.30
2024-01-26T13:06:11.316Z,3.88
2024-01-26T13:08:40.771Z,3.85
2024-01-26T13:08:43.680Z,5.78
2024-01-26T13:11:10.309Z,3.55
2024-01-26T13:13:39.629Z,3.80
2024-01-26T13:13:58.590Z,4.32
2024-01-26T13:16:08.612Z,3.70
2024-01-26T13:18:39.630Z,3.50
2024-01-26T13:19:13.827Z,3.33
2024-01-26T13:21:09.836Z,4.03
2024-01-26T13:23:39.524Z,3.20
2024-01-26T13:24:29.765Z,4.90
2024-01-26T13:26:08.923Z,3.15
2024-01-26T13:28:41.469Z,2.97
2024-01-26T13:29:44.733Z,3.17
2024-01-26T13:31:10.766Z,3.70
2024-01-26T13:33:40.259Z,3.45
2024-01-26T13:34:59.649Z,3.65
2024-01-26T13:36:09.636Z,3.25
2024-01-26T13:38:38.640Z,2.90
2024-01-26T13:40:14.604Z,3.50
2024-01-26T13:41:07.486Z,3.35
2024-01-26T13:43:38.316Z,2.90
2024-01-26T13:45:29.762Z,3.03
2024-01-26T13:46:08.606Z,3.42
2024-01-26T13:48:37.533Z,2.50
2024-01-26T13:50:45.012Z,4.03
2024-01-26T13:51:06.420Z,2.78
2024-01-26T13:53:35.211Z,3.20
2024-01-26T13:56:00.417Z,3.72
2024-01-26T13:56:04.258Z,3.22
2024-01-26T13:58:33.687Z,3.00
2024-01-26T14:01:03.408Z,3.22
2024-01-26T14:01:16.989Z,3.83
2024-01-26T14:03:32.563Z,3.00
2024-01-26T14:06:02.046Z,3.60
2024-01-26T14:06:34.722Z,3.35
2024-01-26T14:08:30.906Z,2.50
2024-01-26T14:11:00.226Z,2.85
2024-01-26T14:11:51.014Z,3.60
2024-01-26T14:13:29.989Z,2.78
2024-01-26T14:16:00.283Z,2.70
2024-01-26T14:17:06.620Z,3.22
2024-01-26T14:18:29.772Z,3.17
2024-01-26T14:20:58.657Z,2.40
2024-01-26T14:22:21.935Z,2.50
2024-01-26T14:23:26.940Z,2.58
2024-01-26T14:25:56.309Z,2.70
2024-01-26T14:27:37.671Z,2.42
2024-01-26T14:28:29.250Z,3.08
2024-01-26T14:30:57.836Z,2.40
2024-01-26T14:32:52.996Z,3.28
2024-01-26T14:33:26.202Z,2.60
2024-01-26T14:35:55.672Z,3.40
2024-01-26T14:38:08.701Z,2.80
2024-01-26T14:38:25.056Z,3.28
2024-01-26T14:40:54.500Z,2.22
2024-01-26T14:43:23.923Z,2.40
2024-01-26T14:43:24.466Z,2.47
2024-01-26T14:45:53.318Z,1.98
2024-01-26T14:48:22.778Z,2.72
2024-01-26T14:48:40.800Z,2.35
2024-01-26T14:50:52.329Z,2.30
2024-01-26T14:53:21.841Z,2.40
2024-01-26T14:53:56.375Z,2.17
2024-01-26T14:55:50.726Z,2.72
2024-01-26T14:58:20.122Z,2.28
2024-01-26T14:59:11.642Z,2.25
2024-01-26T15:00:49.439Z,2.83
2024-01-26T15:03:18.092Z,2.63
2024-01-26T15:04:26.685Z,2.00
2024-01-26T15:05:47.053Z,2.20
2024-01-26T15:08:16.426Z,2.75
2024-01-26T15:09:41.958Z,2.90
2024-01-26T15:10:45.854Z,1.95
2024-01-26T15:13:15.254Z,2.10
2024-01-26T15:14:57.713Z,2.53
2024-01-26T15:15:44.725Z,2.40
2024-01-26T15:18:14.492Z,2.75
2024-01-26T15:20:12.841Z,2.17
2024-01-26T15:20:43.831Z,1.88
2024-01-26T15:23:13.380Z,2.03
2024-01-26T15:25:28.652Z,2.80
2024-01-26T15:25:42.889Z,2.17
2024-01-26T15:28:12.376Z,3.03
2024-01-26T15:30:41.985Z,2.35
2024-01-26T15:30:43.786Z,2.05
2024-01-26T15:33:11.356Z,2.33
2024-01-26T15:35:40.738Z,2.00
2024-01-26T15:35:58.733Z,1.98
2024-01-26T15:38:12.288Z,2.55
2024-01-26T15:40:41.304Z,2.17
2024-01-26T15:41:13.664Z,2.17
2024-01-26T15:43:10.643Z,2.00
2024-01-26T15:45:39.922Z,2.00
2024-01-26T15:46:28.727Z,2.63
2024-01-26T15:48:09.385Z,1.88
2024-01-26T15:50:38.525Z,2.13
2024-01-26T15:51:43.663Z,2.00
2024-01-26T15:53:07.217Z,2.30
2024-01-26T15:55:36.180Z,2.28
2024-01-26T15:56:58.951Z,2.33
2024-01-26T15:58:05.515Z,1.88
2024-01-26T16:00:34.521Z,2.42
2024-01-26T16:02:14.757Z,1.90
2024-01-26T16:03:03.904Z,2.33
2024-01-26T16:05:33.318Z,1.85
2024-01-26T16:07:29.699Z,2.35
2024-01-26T16:08:02.176Z,1.70
2024-01-26T16:10:31.543Z,2.10
2024-01-26T16:12:44.630Z,1.80
2024-01-26T16:13:00.884Z,1.90
2024-01-26T16:15:31.797Z,1.92
2024-01-26T16:17:59.951Z,2.47
2024-01-26T16:18:01.101Z,1.73
2024-01-26T16:20:31.034Z,1.92
2024-01-26T16:23:01.540Z,2.30
2024-01-26T16:23:15.713Z,1.98
2024-01-26T16:25:33.689Z,2.47
2024-01-26T16:28:03.906Z,2.50
2024-01-26T16:28:30.728Z,2.08
2024-01-26T16:30:33.320Z,2.42
2024-01-26T16:33:02.399Z,1.83
2024-01-26T16:33:45.956Z,1.85
2024-01-26T16:35:31.751Z,1.63
2024-01-26T16:38:01.223Z,1.90
2024-01-26T16:39:03.521Z,1.83
2024-01-26T16:40:30.858Z,2.50
2024-01-26T16:42:59.666Z,2.38
2024-01-26T16:44:19.615Z,2.13
2024-01-26T16:45:27.983Z,6.40
2024-01-26T16:47:56.916Z,4.70
2024-01-26T16:49:34.820Z,3.03
2024-01-26T16:50:25.796Z,5.75
2024-01-26T16:52:55.204Z,4.15
2024-01-26T16:54:50.652Z,2.72
2024-01-26T16:55:24.467Z,4.80
2024-01-26T16:57:53.431Z,4.30
2024-01-26T17:00:05.442Z,3.00
2024-01-26T17:00:22.916Z,4.03
2024-01-26T17:02:52.467Z,4.80
2024-01-26T17:05:20.678Z,2.53
2024-01-26T17:05:21.543Z,4.78
2024-01-26T17:07:51.085Z,4.70
2024-01-26T17:10:20.475Z,3.85
2024-01-26T17:10:35.739Z,2.85
2024-01-26T17:12:49.812Z,3.95
2024-01-26T17:15:18.742Z,4.10
2024-01-26T17:15:51.060Z,3.20
2024-01-26T17:17:48.238Z,4.00
2024-01-26T17:20:17.442Z,3.60
2024-01-26T17:21:06.742Z,2.67
2024-01-26T17:22:46.214Z,2.97
2024-01-26T17:25:15.628Z,3.45
2024-01-26T17:26:21.737Z,2.40
2024-01-26T17:27:45.028Z,2.97
2024-01-26T17:30:13.897Z,3.22
2024-01-26T17:31:36.746Z,2.60
2024-01-26T17:32:42.308Z,2.58
2024-01-26T17:35:11.914Z,2.80
2024-01-26T17:36:51.729Z,3.00
2024-01-26T17:37:41.061Z,3.28
2024-01-26T17:40:10.085Z,2.97
2024-01-26T17:42:06.642Z,2.10
2024-01-26T17:42:39.434Z,3.20
2024-01-26T17:45:08.696Z,2.70
2024-01-26T17:47:21.741Z,3.22
2024-01-26T17:47:37.710Z,2.90
2024-01-26T17:50:09.845Z,3.03
2024-01-26T17:52:36.974Z,3.30
2024-01-26T17:52:39.590Z,2.40
2024-01-26T17:55:09.103Z,2.92
2024-01-26T17:57:38.505Z,2.72
2024-01-26T17:57:52.697Z,2.13
2024-01-26T18:00:07.971Z,2.50
2024-01-26T18:02:37.389Z,2.60
2024-01-26T18:03:07.904Z,2.72
2024-01-26T18:05:06.650Z,2.22
2024-01-26T18:07:35.442Z,2.10
2024-01-26T18:08:23.710Z,2.63
2024-01-26T18:10:04.784Z,3.17
2024-01-26T18:12:34.216Z,2.90
2024-01-26T18:13:38.651Z,2.20
2024-01-26T18:15:03.279Z,2.65
2024-01-26T18:17:32.772Z,2.50
2024-01-26T18:18:55.089Z,2.72
2024-01-26T18:20:02.462Z,2.17
2024-01-26T18:22:31.226Z,2.75
2024-01-26T18:24:10.868Z,2.03
2024-01-26T18:24:59.997Z,2.63
2024-01-26T18:27:28.784Z,2.20
2024-01-26T18:29:26.668Z,1.88
2024-01-26T18:29:57.637Z,2.88
2024-01-26T18:32:28.905Z,2.30
2024-01-26T18:34:41.731Z,1.98
2024-01-26T18:34:58.514Z,2.42
2024-01-26T18:37:27.463Z,2.03
2024-01-26T18:39:56.396Z,1.98
2024-01-26T18:39:56.637Z,2.10
2024-01-26T18:42:25.819Z,2.38
2024-01-26T18:44:55.338Z,2.50
2024-01-26T18:45:11.754Z,2.97
2024-01-26T18:47:24.383Z,2.13
2024-01-26T18:49:53.546Z,2.13
2024-01-26T18:50:26.687Z,2.70
2024-01-26T18:52:25.147Z,2.38
2024-01-26T18:54:54.413Z,2.08
2024-01-26T18:55:41.672Z,2.90
2024-01-26T18:57:23.859Z,2.25
2024-01-26T18:59:53.951Z,2.40
2024-01-26T19:00:56.717Z,3.67
2024-01-26T19:02:23.342Z,2.33
2024-01-26T19:04:53.447Z,2.97
2024-01-26T19:06:11.660Z,1.60
2024-01-26T19:07:22.800Z,2.13
2024-01-26T19:09:52.085Z,2.10
2024-01-26T19:11:27.514Z,1.85
2024-01-26T19:12:21.438Z,1.95
2024-01-26T19:14:50.128Z,2.65
2024-01-26T19:16:42.488Z,1.77
2024-01-26T19:17:18.867Z,2.20
2024-01-26T19:19:47.698Z,2.78
2024-01-26T19:21:57.745Z,1.85
2024-01-26T19:22:18.286Z,2.20
2024-01-26T19:24:48.039Z,2.00
2024-01-26T19:27:12.775Z,2.25
2024-01-26T19:27:16.541Z,1.73
2024-01-26T19:29:44.822Z,1.83
2024-01-26T19:32:14.841Z,2.25
2024-01-26T19:32:27.711Z,1.98
2024-01-26T19:34:45.970Z,2.08
2024-01-26T19:37:15.780Z,2.15
2024-01-26T19:37:42.746Z,1.80
2024-01-26T19:39:50.692Z,1.75
2024-01-26T19:42:20.259Z,1.98
2024-01-26T19:42:57.708Z,2.33
2024-01-26T19:44:49.909Z,1.88
2024-01-26T19:47:18.718Z,2.20
2024-01-26T19:48:12.791Z,2.40
2024-01-26T19:49:47.796Z,1.98
2024-01-26T19:52:16.901Z,2.30
2024-01-26T19:53:27.732Z,2.15
2024-01-26T19:54:49.910Z,2.20
2024-01-26T19:57:20.489Z,2.00
2024-01-26T19:58:42.734Z,2.60
2024-01-26T19:59:52.077Z,1.90
2024-01-26T20:02:22.522Z,2.35
2024-01-26T20:03:57.841Z,2.50
2024-01-26T20:04:51.898Z,2.30
2024-01-26T20:07:21.948Z,2.70
2024-01-26T20:09:12.718Z,2.47
2024-01-26T20:09:52.657Z,2.47
2024-01-26T20:12:23.801Z,3.05
2024-01-26T20:14:27.730Z,1.98
2024-01-26T20:14:52.565Z,2.35
2024-01-26T20:17:22.010Z,2.60
2024-01-26T20:19:42.773Z,2.40
2024-01-26T20:19:50.654Z,1.80
2024-01-26T20:22:19.491Z,2.30
2024-01-26T20:24:48.968Z,2.08
2024-01-26T20:24:57.637Z,2.38
2024-01-26T20:27:18.463Z,2.42
2024-01-26T20:29:48.890Z,1.77
2024-01-26T20:30:12.795Z,2.30
2024-01-26T20:32:19.129Z,2.63
2024-01-26T20:34:49.042Z,2.00
2024-01-26T20:35:28.870Z,2.40
2024-01-26T20:37:20.327Z,2.13
2024-01-26T20:39:52.420Z,1.90
2024-01-26T20:40:45.653Z,1.80
2024-01-26T20:42:21.672Z,2.45
2024-01-26T20:44:50.998Z,1.90
2024-01-26T20:46:00.685Z,1.80
2024-01-26T20:47:20.586Z,2.63
2024-01-26T20:49:50.043Z,2.30
2024-01-26T20:51:15.849Z,2.72
2024-01-26T20:52:18.988Z,1.35
2024-01-26T20:54:48.486Z,1.58
2024-01-26T20:56:30.420Z,2.17
2024-01-26T20:57:17.834Z,2.13
2024-01-26T20:59:47.188Z,2.00
2024-01-26T21:01:45.662Z,2.67
2024-01-26T21:02:16.071Z,1.33
2024-01-26T21:04:45.425Z,1.58
2024-01-26T21:07:00.722Z,1.27
2024-01-26T21:07:14.875Z,2.10
2024-01-26T21:09:44.578Z,1.45
2024-01-26T21:12:13.783Z,1.83
2024-01-26T21:12:15.786Z,1.73
2024-01-26T21:14:43.108Z,1.35
2024-01-26T21:17:12.013Z,1.63
2024-01-26T21:17:30.757Z,1.45
2024-01-26T21:19:41.071Z,1.52
2024-01-26T21:22:10.311Z,1.40
2024-01-26T21:22:45.746Z,1.58
2024-01-26T21:24:39.394Z,1.45
2024-01-26T21:27:08.138Z,1.70
2024-01-26T21:28:00.517Z,1.65
2024-01-26T21:29:36.985Z,1.58
2024-01-26T21:32:06.381Z,1.40
2024-01-26T21:33:15.788Z,2.17
2024-01-26T21:34:36.267Z,1.40
2024-01-26T21:37:06.307Z,1.45
2024-01-26T21:38:31.989Z,1.42
2024-01-26T21:39:35.567Z,1.08
2024-01-26T21:42:05.101Z,1.30
2024-01-26T21:43:48.771Z,1.85
2024-01-26T21:44:34.126Z,1.27
2024-01-26T21:47:04.007Z,1.40
2024-01-26T21:49:04.121Z,1.40
2024-01-26T21:49:33.182Z,1.55
2024-01-26T21:52:02.896Z,1.50
2024-01-26T21:54:20.086Z,1.40
2024-01-26T21:54:32.241Z,1.58
2024-01-26T21:57:01.313Z,1.13
2024-01-26T21:59:29.953Z,1.58
2024-01-26T21:59:36.030Z,1.40
2024-01-26T22:01:58.993Z,1.50
2024-01-26T22:04:28.139Z,1.85
2024-01-26T22:04:51.683Z,1.50
2024-01-26T22:06:56.443Z,1.33
2024-01-26T22:09:25.995Z,1.33
2024-01-26T22:10:06.792Z,1.50
2024-01-26T22:11:55.398Z,0.90
2024-01-26T22:14:24.280Z,1.23
2024-01-26T22:15:21.828Z,1.80
2024-01-26T22:16:52.847Z,1.30
2024-01-26T22:19:21.828Z,1.50
2024-01-26T22:20:36.688Z,1.50
2024-01-26T22:21:51.356Z,1.02
2024-01-26T22:24:20.888Z,1.10
2024-01-26T22:25:52.090Z,1.60
2024-01-26T22:26:50.411Z,1.30
2024-01-26T22:29:19.267Z,1.42
2024-01-26T22:31:07.757Z,1.42
2024-01-26T22:31:48.675Z,1.08